createdAt,value
2022-12-24T00:00:16.770Z,41.9
2022-12-24T00:05:16.806Z,42.0
2022-12-24T00:10:16.647Z,41.4
2022-12-24T00:15:16.738Z,41.2
2022-12-24T00:20:17.154Z,40.1
2022-12-24T00:25:16.719Z,39.4
2022-12-24T00:30:16.743Z,39.1
2022-12-24T00:35:16.946Z,38.9
2022-12-24T00:40:16.668Z,38.4
2022-12-24T00:45:17.040Z,37.7
2022-12-24T00:50:17.059Z,37.2
2022-12-24T00:55:16.729Z,36.5
2022-12-24T01:00:16.828Z,36.4
2022-12-24T01:05:16.815Z,36.4
2022-12-24T01:10:16.795Z,36.1
2022-12-24T01:15:16.849Z,35.3
2022-12-24T01:20:16.860Z,35.3
2022-12-24T01:25:16.915Z,34.7
2022-12-24T01:30:16.818Z,34.4
2022-12-24T01:35:17.440Z,33.8
2022-12-24T01:40:16.929Z,33.6
2022-12-24T01:45:16.922Z,33.6
2022-12-24T01:50:17.162Z,33.3
2022-12-24T01:55:16.891Z,33.2
2022-12-24T02:00:17.140Z,33.1
2022-12-24T02:05:16.988Z,32.6
2022-12-24T02:10:17.003Z,32.4
2022-12-24T02:15:16.939Z,32.8
2022-12-24T02:20:17.136Z,32.3
2022-12-24T02:25:16.959Z,32.4
2022-12-24T02:30:18.307Z,32.0
2022-12-24T02:35:17.093Z,31.6
2022-12-24T02:40:17.481Z,32.2
2022-12-24T02:45:17.201Z,31.8
2022-12-24T02:50:17.487Z,31.3
2022-12-24T02:55:17.025Z,31.8
2022-12-24T03:00:17.263Z,31.8
2022-12-24T03:05:17.532Z,31.1
2022-12-24T03:10:17.309Z,31.0
2022-12-24T03:15:17.050Z,31.2
2022-12-24T03:20:17.439Z,30.9
2022-12-24T03:25:17.247Z,30.9
2022-12-24T03:30:17.262Z,30.2
2022-12-24T03:35:17.187Z,30.1
2022-12-24T03:40:17.262Z,29.5
2022-12-24T03:45:17.306Z,29.6
2022-12-24T03:50:17.443Z,29.1
2022-12-24T03:55:17.320Z,28.8
2022-12-24T04:00:17.356Z,28.5
2022-12-24T04:05:17.887Z,28.2
2022-12-24T04:10:17.287Z,28.3
2022-12-24T04:15:17.413Z,27.7
2022-12-24T04:20:17.635Z,27.4
2022-12-24T04:25:17.209Z,26.9
2022-12-24T04:30:17.354Z,26.7
2022-12-24T04:35:16.911Z,26.2
2022-12-24T04:40:16.380Z,25.7
2022-12-24T04:45:16.317Z,25.6
2022-12-24T04:50:16.834Z,25.4
2022-12-24T04:55:16.380Z,25.2
2022-12-24T05:00:17.552Z,25.0
2022-12-24T05:05:17.628Z,24.5
2022-12-24T05:10:18.579Z,24.5
2022-12-24T05:15:17.478Z,24.2
2022-12-24T05:20:18.125Z,23.8
2022-12-24T05:25:17.470Z,23.3
2022-12-24T05:30:17.508Z,23.0
2022-12-24T05:35:17.607Z,23.1
2022-12-24T05:40:17.522Z,22.9
2022-12-24T05:45:17.538Z,22.5
2022-12-24T05:50:17.628Z,22.2
2022-12-24T05:55:17.647Z,21.5
2022-12-24T06:00:17.541Z,21.3
2022-12-24T06:05:17.869Z,21.2
2022-12-24T06:10:17.684Z,21.2
2022-12-24T06:15:23.690Z,21.2
2022-12-24T06:20:17.660Z,21.4
2022-12-24T06:25:17.554Z,21.0
2022-12-24T06:30:18.783Z,20.7
2022-12-24T06:35:18.075Z,20.5
2022-12-24T06:40:17.700Z,19.9
2022-12-24T06:45:17.675Z,20.0
2022-12-24T06:50:17.841Z,19.7
2022-12-24T06:55:17.750Z,19.5
2022-12-24T07:00:17.791Z,19.5
2022-12-24T07:05:17.921Z,19.4
2022-12-24T07:10:18.055Z,19.3
2022-12-24T07:15:17.799Z,19.3
2022-12-24T07:20:17.941Z,19.4
2022-12-24T07:25:18.039Z,19.5
2022-12-24T07:30:17.865Z,19.4
2022-12-24T07:35:17.836Z,18.6
2022-12-24T07:40:18.001Z,18.2
2022-12-24T07:45:17.853Z,17.7
2022-12-24T07:50:18.315Z,17.5
2022-12-24T07:55:17.918Z,17.7
2022-12-24T08:00:17.907Z,18.7
2022-12-24T08:05:17.944Z,18.7
2022-12-24T08:10:17.941Z,17.1
2022-12-24T08:15:18.441Z,15.8
2022-12-24T08:20:18.019Z,16.3
2022-12-24T08:25:18.009Z,16.2
2022-12-24T08:30:21.205Z,16.3
2022-12-24T08:35:16.989Z,16.7
2022-12-24T08:40:19.718Z,16.6
2022-12-24T08:45:18.371Z,15.8
2022-12-24T08:50:18.149Z,14.8
2022-12-24T08:55:18.063Z,15.2
2022-12-24T09:00:18.124Z,15.6
2022-12-24T09:05:18.452Z,15.2
2022-12-24T09:10:18.118Z,14.3
2022-12-24T09:15:18.351Z,14.9
2022-12-24T09:20:18.640Z,14.8
2022-12-24T09:25:18.084Z,14.4
2022-12-24T09:30:18.207Z,14.2
2022-12-24T09:35:18.389Z,12.4
2022-12-24T09:40:18.291Z,13.1
2022-12-24T09:45:18.083Z,12.4
2022-12-24T09:50:18.351Z,12.3
2022-12-24T09:55:16.337Z,11.9
2022-12-24T10:00:16.260Z,12.4
2022-12-24T10:05:16.200Z,11.7
2022-12-24T10:10:16.319Z,12.0
2022-12-24T10:15:16.215Z,12.3
2022-12-24T10:20:16.551Z,12.3
2022-12-24T10:25:16.550Z,12.1
2022-12-24T10:30:17.647Z,10.9
2022-12-24T10:35:16.416Z,10.2
2022-12-24T10:40:16.389Z,10.6
2022-12-24T10:45:16.560Z,10.5
2022-12-24T10:50:16.516Z,10.1
2022-12-24T10:55:16.394Z,10.1
2022-12-24T11:00:16.428Z,10.0
2022-12-24T11:05:16.779Z,10.6
2022-12-24T11:10:16.508Z,10.3
2022-12-24T11:15:16.410Z,10.8
2022-12-24T11:20:16.631Z,9.8
2022-12-24T11:25:16.548Z,9.7
2022-12-24T11:30:16.720Z,9.5
2022-12-24T11:35:17.178Z,10.2
2022-12-24T11:40:16.801Z,9.5
2022-12-24T11:45:16.477Z,9.5
2022-12-24T11:50:18.463Z,10.2
2022-12-24T11:55:17.081Z,9.8
2022-12-24T12:00:16.605Z,9.8
2022-12-24T12:05:16.899Z,9.4
2022-12-24T12:10:16.748Z,9.6
2022-12-24T12:15:16.652Z,9.2
2022-12-24T12:20:16.824Z,9.0
2022-12-24T12:25:16.770Z,9.9
2022-12-24T12:30:16.733Z,9.3
2022-12-24T12:35:16.692Z,9.8
2022-12-24T12:40:16.730Z,9.9
2022-12-24T12:45:18.049Z,9.3
2022-12-24T12:50:17.354Z,10.5
2022-12-24T12:55:23.942Z,10.1
2022-12-24T13:00:16.777Z,9.9
2022-12-24T13:05:17.051Z,10.1
2022-12-24T13:10:16.743Z,9.4
2022-12-24T13:15:16.796Z,9.4
2022-12-24T13:20:17.065Z,10.0
2022-12-24T13:25:16.819Z,11.2
2022-12-24T13:30:16.933Z,10.8
2022-12-24T13:35:17.278Z,11.3
2022-12-24T13:40:17.909Z,10.6
2022-12-24T13:45:16.902Z,10.7
2022-12-24T13:50:17.279Z,10.3
2022-12-24T13:55:17.206Z,9.4
2022-12-24T14:00:16.961Z,10.1
2022-12-24T14:05:21.472Z,9.7
2022-12-24T14:10:17.016Z,9.9
2022-12-24T14:15:17.101Z,10.4
2022-12-24T14:20:17.035Z,10.7
2022-12-24T14:25:17.235Z,10.5
2022-12-24T14:30:17.189Z,10.2
2022-12-24T14:35:17.099Z,10.8
2022-12-24T14:40:17.073Z,10.6
2022-12-24T14:45:17.144Z,10.4
2022-12-24T14:50:17.232Z,10.8
2022-12-24T14:55:17.224Z,11.3
2022-12-24T15:00:17.266Z,11.2
2022-12-24T15:05:17.438Z,11.9
2022-12-24T15:10:17.137Z,10.7
2022-12-24T15:15:17.093Z,10.9
2022-12-24T15:20:17.621Z,11.0
2022-12-24T15:25:17.342Z,11.4
2022-12-24T15:30:17.299Z,11.6
2022-12-24T15:35:17.278Z,11.6
2022-12-24T15:40:17.246Z,11.5
2022-12-24T15:45:21.713Z,11.2
2022-12-24T15:50:17.364Z,12.0
2022-12-24T15:55:17.305Z,12.1
2022-12-24T16:00:17.390Z,12.4
2022-12-24T16:05:17.317Z,13.1
2022-12-24T16:10:17.560Z,12.9
2022-12-24T16:15:17.439Z,12.6
2022-12-24T16:20:17.414Z,12.5
2022-12-24T16:25:17.317Z,12.9
2022-12-24T16:30:17.838Z,13.8
2022-12-24T16:35:18.154Z,14.2
2022-12-24T16:40:21.915Z,14.2
2022-12-24T16:45:17.342Z,14.9
2022-12-24T16:50:17.636Z,16.1
2022-12-24T16:55:17.491Z,15.3
2022-12-24T17:00:17.536Z,15.2
2022-12-24T17:05:17.549Z,14.3
2022-12-24T17:10:17.501Z,16.1
2022-12-24T17:15:17.474Z,16.6
2022-12-24T17:20:23.669Z,16.5
2022-12-24T17:25:17.665Z,15.9
2022-12-24T17:30:17.636Z,15.9
2022-12-24T17:35:17.595Z,16.1
2022-12-24T17:40:17.593Z,15.6
2022-12-24T17:45:17.811Z,15.5
2022-12-24T17:50:17.899Z,15.7
2022-12-24T17:55:17.542Z,16.2
2022-12-24T18:00:17.710Z,15.8
2022-12-24T18:05:17.694Z,15.8
2022-12-24T18:10:17.708Z,16.2
2022-12-24T18:15:17.576Z,16.0
2022-12-24T18:20:17.868Z,15.4
2022-12-24T18:25:17.914Z,16.3
2022-12-24T18:30:21.620Z,15.8
2022-12-24T18:35:18.367Z,15.9
2022-12-24T18:40:17.733Z,15.1
2022-12-24T18:45:17.763Z,14.8
2022-12-24T18:50:17.886Z,16.0
2022-12-24T18:55:17.934Z,15.4
2022-12-24T19:00:17.808Z,14.6
2022-12-24T19:05:17.999Z,15.3
2022-12-24T19:10:18.006Z,15.6
2022-12-24T19:15:17.851Z,14.4
2022-12-24T19:20:18.033Z,15.1
2022-12-24T19:25:17.935Z,15.3
2022-12-24T19:30:18.080Z,14.3
2022-12-24T19:35:17.960Z,14.8
2022-12-24T19:40:17.969Z,14.3
2022-12-24T19:45:18.086Z,15.5
2022-12-24T19:50:18.150Z,15.6
2022-12-24T19:55:18.007Z,15.0
2022-12-24T20:00:17.977Z,15.6
2022-12-24T20:05:18.363Z,14.7
2022-12-24T20:10:18.016Z,15.2
2022-12-24T20:15:18.072Z,15.2
2022-12-24T20:20:19.089Z,14.7
2022-12-24T20:25:18.041Z,15.1
2022-12-24T20:30:18.085Z,15.2
2022-12-24T20:35:18.140Z,15.2
2022-12-24T20:40:18.428Z,15.2
2022-12-24T20:45:20.397Z,14.8
2022-12-24T20:50:18.253Z,14.0
2022-12-24T20:55:18.304Z,13.7
2022-12-24T21:00:18.262Z,14.5
2022-12-24T21:05:19.052Z,13.5
2022-12-24T21:10:18.264Z,13.7
2022-12-24T21:15:18.167Z,13.3
2022-12-24T21:20:16.246Z,13.2
2022-12-24T21:25:16.222Z,12.7
2022-12-24T21:30:16.664Z,13.0
2022-12-24T21:35:16.612Z,13.3
2022-12-24T21:40:16.401Z,12.9
2022-12-24T21:45:16.384Z,13.3
2022-12-24T21:50:16.621Z,13.3
2022-12-24T21:55:16.312Z,12.8
2022-12-24T22:00:16.365Z,13.1
2022-12-24T22:05:16.752Z,12.0
2022-12-24T22:10:16.347Z,13.0
2022-12-24T22:15:16.557Z,13.4
2022-12-24T22:20:16.527Z,12.7
2022-12-24T22:25:16.397Z,12.9
2022-12-24T22:30:16.450Z,13.4
2022-12-24T22:35:16.593Z,12.6
2022-12-24T22:40:16.834Z,13.3
2022-12-24T22:45:22.029Z,13.1
2022-12-24T22:50:16.693Z,12.2
2022-12-24T22:55:16.484Z,12.1
2022-12-24T23:00:17.373Z,12.7
2022-12-24T23:05:16.616Z,12.2
2022-12-24T23:10:16.618Z,12.1
2022-12-24T23:15:16.765Z,12.5
2022-12-24T23:20:16.607Z,12.0
2022-12-24T23:25:17.075Z,11.5
2022-12-24T23:30:16.694Z,11.1
2022-12-24T23:35:16.846Z,11.7
2022-12-24T23:40:16.684Z,11.0
2022-12-24T23:45:16.613Z,11.2
2022-12-24T23:50:17.347Z,11.8
2022-12-24T23:55:16.800Z,11.1
